Time;durP1;ratioP1;P1;durP2;ratioP2;P2;SDS_P1;SDS_P2;PMS_P1;PMS_P2;Temp;Humidity;BMP_temperature;BMP_pressure;BME280_temperature;BME280_humidity;BME280_pressure;Samples;Min_cycle;Max_cycle;Signal;HPM_P1;HPM_P2
2022/07/11 00:02:11;;;;;;;2.60;1.90;;;15.60;99.90;;;;;;5010928;28;20203;-62
2022/07/11 00:04:37;;;;;;;2.03;1.57;;;15.80;99.90;;;;;;5010076;28;20233;-62
2022/07/11 00:07:03;;;;;;;2.13;1.90;;;15.60;99.90;;;;;;5010727;28;20182;-62
2022/07/11 00:09:30;;;;;;;1.80;1.70;;;15.60;99.90;;;;;;5006623;28;20663;-63
2022/07/11 00:11:56;;;;;;;2.55;1.45;;;15.70;99.90;;;;;;5011903;28;20457;-62
2022/07/11 00:14:22;;;;;;;2.30;2.10;;;15.70;99.90;;;;;;5008213;28;20214;-62
2022/07/11 00:16:49;;;;;;;3.47;1.60;;;15.90;99.90;;;;;;5002049;28;20244;-62
2022/07/11 00:19:15;;;;;;;1.65;1.55;;;15.70;99.90;;;;;;5009701;28;20179;-64
2022/07/11 00:21:41;;;;;;;1.70;1.60;;;15.80;99.90;;;;;;5010282;28;20304;-64
2022/07/11 00:24:07;;;;;;;1.90;1.80;;;15.80;99.90;;;;;;5010781;28;20402;-62
2022/07/11 00:26:37;;;;;;;2.20;1.70;;;15.70;99.90;;;;;;5007725;28;20449;-63
2022/07/11 00:29:03;;;;;;;1.75;1.65;;;15.50;99.90;;;;;;5012014;28;20241;-60
2022/07/11 00:31:29;;;;;;;1.73;1.63;;;15.90;99.90;;;;;;5010554;28;20215;-60
2022/07/11 00:33:55;;;;;;;1.73;1.60;;;15.70;99.90;;;;;;5002800;28;20203;-60
2022/07/11 00:36:20;;;;;;;2.22;2.00;;;15.70;99.90;;;;;;5009989;28;20779;-60
2022/07/11 00:38:47;;;;;;;2.13;1.90;;;15.80;99.90;;;;;;4988166;28;20203;-60
2022/07/11 00:41:12;;;;;;;2.00;1.77;;;15.70;99.90;;;;;;5009274;28;20206;-64
2022/07/11 00:43:39;;;;;;;2.33;1.70;;;15.60;99.90;;;;;;5010401;28;20183;-63
2022/07/11 00:46:06;;;;;;;2.17;2.00;;;15.80;99.90;;;;;;5012034;28;20183;-63
2022/07/11 00:48:32;;;;;;;2.15;1.65;;;15.90;99.90;;;;;;5010304;28;20699;-63
2022/07/11 00:51:01;;;;;;;2.10;1.90;;;15.70;99.90;;;;;;5008877;28;20241;-62
2022/07/11 00:53:27;;;;;;;2.13;1.92;;;15.70;99.90;;;;;;5012856;28;20743;-59
2022/07/11 00:55:53;;;;;;;2.10;2.00;;;15.60;99.90;;;;;;5012714;28;20183;-60
2022/07/11 00:58:19;;;;;;;3.17;1.92;;;15.70;99.90;;;;;;5009867;28;20186;-60
2022/07/11 01:00:45;;;;;;;1.70;1.60;;;15.90;99.90;;;;;;5012932;28;20175;-60
2022/07/11 01:03:11;;;;;;;2.65;2.17;;;15.70;99.90;;;;;;5012064;28;20197;-63
2022/07/11 01:05:37;;;;;;;2.30;2.10;;;15.90;99.90;;;;;;5012657;28;20602;-60
2022/07/11 01:08:03;;;;;;;1.90;1.80;;;15.60;99.90;;;;;;5005448;28;20207;-59
2022/07/11 01:10:29;;;;;;;2.10;1.92;;;16.20;99.90;;;;;;5014033;28;20526;-59
2022/07/11 01:12:55;;;;;;;2.00;1.90;;;15.70;99.90;;;;;;5011616;28;20252;-62
2022/07/11 01:15:20;;;;;;;2.10;2.00;;;15.70;99.90;;;;;;5012076;28;20230;-60
2022/07/11 01:17:46;;;;;;;2.43;2.23;;;16.00;99.90;;;;;;4990699;28;20187;-60
2022/07/11 01:20:12;;;;;;;5.00;2.40;;;15.70;99.90;;;;;;5010298;28;20266;-60
2022/07/11 01:22:44;;;;;;;2.33;2.13;;;15.90;99.90;;;;;;5009235;28;20202;-62
2022/07/11 01:25:09;;;;;;;4.10;1.83;;;15.80;99.90;;;;;;5012192;28;20183;-63
2022/07/11 01:27:35;;;;;;;2.43;1.90;;;15.70;99.90;;;;;;5011875;28;20229;-63
2022/07/11 01:30:02;;;;;;;1.83;1.70;;;15.70;99.90;;;;;;5008605;28;20312;-62
2022/07/11 01:32:27;;;;;;;2.03;1.92;;;15.70;99.90;;;;;;5011203;28;20201;-62
2022/07/11 01:34:53;;;;;;;2.07;1.90;;;15.70;99.90;;;;;;5004287;28;20219;-62
2022/07/11 01:37:18;;;;;;;3.87;1.80;;;15.50;99.90;;;;;;5013444;28;20678;-62
2022/07/11 01:39:44;;;;;;;3.03;2.20;;;15.60;99.90;;;;;;5011825;28;20187;-61
2022/07/11 01:42:09;;;;;;;2.80;2.10;;;15.90;99.90;;;;;;5012125;28;20254;-62
2022/07/11 01:44:35;;;;;;;2.30;2.10;;;15.90;99.90;;;;;;5007135;28;20266;-61
2022/07/11 01:47:01;;;;;;;2.63;2.17;;;15.60;99.90;;;;;;5010073;28;20596;-66
2022/07/11 01:49:29;;;;;;;2.27;2.07;;;15.80;99.90;;;;;;5004610;28;20190;-59
2022/07/11 01:51:55;;;;;;;2.10;1.90;;;15.80;99.90;;;;;;5012185;28;20218;-62
2022/07/11 01:54:21;;;;;;;2.17;2.05;;;16.00;99.90;;;;;;5006364;28;20214;-60
2022/07/11 01:56:47;;;;;;;2.10;2.00;;;16.10;99.90;;;;;;5010508;28;20218;-60
2022/07/11 01:59:13;;;;;;;1.80;1.70;;;15.90;99.90;;;;;;5009734;28;20187;-60
2022/07/11 02:01:39;;;;;;;2.20;2.10;;;15.90;99.90;;;;;;5002064;28;20586;-60
2022/07/11 02:04:05;;;;;;;2.60;2.40;;;15.90;99.90;;;;;;5003012;28;20442;-60
2022/07/11 02:06:31;;;;;;;2.30;2.15;;;15.90;99.90;;;;;;5005378;28;20480;-60
2022/07/11 02:08:57;;;;;;;2.50;2.00;;;15.80;99.90;;;;;;5007490;28;20234;-60
2022/07/11 02:11:23;;;;;;;2.90;1.80;;;16.20;99.90;;;;;;5007538;28;20202;-60
2022/07/11 02:13:49;;;;;;;2.47;2.20;;;16.00;99.90;;;;;;5012331;28;20713;-60
2022/07/11 02:16:16;;;;;;;4.85;2.50;;;16.20;99.90;;;;;;4994515;28;20210;-60
2022/07/11 02:18:41;;;;;;;2.40;2.20;;;15.80;99.90;;;;;;5010417;28;20184;-60
2022/07/11 02:21:08;;;;;;;1.90;1.80;;;15.80;99.90;;;;;;5004469;28;20202;-60
2022/07/11 02:23:33;;;;;;;3.15;2.75;;;16.00;99.90;;;;;;5012329;28;20325;-60
2022/07/11 02:25:59;;;;;;;2.43;2.23;;;16.00;99.90;;;;;;5012355;28;20266;-60
2022/07/11 02:28:25;;;;;;;2.50;2.07;;;16.00;99.90;;;;;;5004747;28;20592;-60
2022/07/11 02:30:51;;;;;;;2.70;2.30;;;15.90;99.90;;;;;;5010998;28;20249;-60
2022/07/11 02:33:16;;;;;;;2.50;2.30;;;16.00;99.90;;;;;;5011434;28;20222;-60
2022/07/11 02:35:43;;;;;;;2.20;2.00;;;16.00;99.90;;;;;;5005367;28;20680;-60
2022/07/11 02:38:09;;;;;;;2.47;2.28;;;16.00;99.90;;;;;;5011305;28;20668;-60
2022/07/11 02:40:36;;;;;;;2.77;2.57;;;15.80;99.90;;;;;;5012019;28;20245;-60
2022/07/11 02:43:02;;;;;;;1.90;1.80;;;16.10;99.90;;;;;;5008410;28;20229;-60
2022/07/11 02:45:27;;;;;;;3.07;2.77;;;16.00;99.90;;;;;;5011823;28;20659;-60
2022/07/11 02:47:53;;;;;;;2.50;2.30;;;16.10;99.90;;;;;;5010826;28;20190;-60
2022/07/11 02:50:18;;;;;;;2.43;2.23;;;16.10;99.90;;;;;;5004897;28;20195;-60
2022/07/11 02:52:45;;;;;;;2.60;2.40;;;16.10;99.90;;;;;;5009908;28;20298;-60
2022/07/11 02:55:12;;;;;;;3.63;2.15;;;16.20;99.90;;;;;;5011466;28;20525;-60
2022/07/11 02:57:38;;;;;;;2.30;2.20;;;16.00;99.90;;;;;;5008100;28;20180;-60
2022/07/11 03:00:05;;;;;;;2.20;2.08;;;16.30;99.90;;;;;;5011674;28;20559;-60
2022/07/11 03:02:31;;;;;;;3.45;2.58;;;16.10;99.90;;;;;;5003970;28;20199;-60
2022/07/11 03:04:57;;;;;;;2.40;2.20;;;16.20;99.90;;;;;;5011144;28;20189;-60
2022/07/11 03:07:28;;;;;;;2.67;2.47;;;16.10;99.90;;;;;;5011096;28;20717;-60
2022/07/11 03:09:55;;;;;;;2.38;2.17;;;16.20;99.90;;;;;;5011754;28;20659;-60
2022/07/11 03:12:21;;;;;;;2.60;2.40;;;16.20;99.90;;;;;;5010400;28;20218;-60
2022/07/11 03:14:46;;;;;;;2.38;2.28;;;16.50;99.90;;;;;;5011043;28;20214;-60
2022/07/11 03:17:12;;;;;;;2.90;2.60;;;16.30;99.90;;;;;;5009810;28;20542;-60
2022/07/11 03:19:37;;;;;;;2.50;2.30;;;16.20;99.90;;;;;;5011140;28;20464;-60
2022/07/11 03:22:04;;;;;;;2.60;2.40;;;16.30;99.90;;;;;;5009084;28;20195;-60
2022/07/11 03:24:30;;;;;;;2.50;2.30;;;16.10;99.90;;;;;;5011286;28;20183;-60
2022/07/11 03:26:55;;;;;;;2.90;2.70;;;16.40;99.90;;;;;;5009070;28;20194;-60
2022/07/11 03:29:22;;;;;;;2.90;2.70;;;16.30;99.90;;;;;;5011192;28;20183;-60
2022/07/11 03:31:47;;;;;;;2.58;2.38;;;16.10;99.90;;;;;;5011293;28;20264;-60
2022/07/11 03:34:13;;;;;;;2.67;2.27;;;16.30;99.90;;;;;;5006313;28;20211;-60
2022/07/11 03:36:39;;;;;;;3.23;3.00;;;16.20;99.90;;;;;;5010999;28;20260;-60
2022/07/11 03:39:05;;;;;;;2.83;2.60;;;16.30;99.90;;;;;;5010233;28;20266;-60
2022/07/11 03:41:30;;;;;;;3.37;3.17;;;16.20;99.90;;;;;;5008961;28;20225;-60
2022/07/11 03:43:56;;;;;;;3.27;2.80;;;16.30;99.90;;;;;;5010324;28;20587;-60
2022/07/11 03:46:22;;;;;;;3.10;2.90;;;16.50;99.90;;;;;;5009905;28;20179;-60
2022/07/11 03:48:47;;;;;;;3.03;2.83;;;16.30;99.90;;;;;;5011630;28;20191;-60
2022/07/11 03:51:13;;;;;;;3.27;2.97;;;16.30;99.90;;;;;;5012675;28;20466;-60
2022/07/11 03:53:38;;;;;;;2.67;2.47;;;16.40;99.90;;;;;;5011304;28;20226;-61
2022/07/11 03:56:04;;;;;;;3.87;3.33;;;16.60;99.90;;;;;;5010420;28;20179;-60
2022/07/11 03:58:30;;;;;;;3.17;2.77;;;16.40;99.90;;;;;;5002037;28;20190;-60
2022/07/11 04:00:55;;;;;;;3.23;3.00;;;16.50;99.90;;;;;;5005696;28;20503;-60
2022/07/11 04:03:21;;;;;;;3.10;2.87;;;16.60;99.90;;;;;;5005149;28;20187;-60
2022/07/11 04:05:47;;;;;;;3.10;2.90;;;16.70;99.90;;;;;;5001475;28;20193;-60
2022/07/11 04:08:12;;;;;;;5.17;4.80;;;16.50;99.90;;;;;;5004033;28;20531;-60
2022/07/11 04:10:38;;;;;;;3.13;2.83;;;16.60;99.90;;;;;;5004418;28;20469;-60
2022/07/11 04:13:03;;;;;;;3.60;3.23;;;16.50;99.90;;;;;;4989742;28;20207;-60
2022/07/11 04:15:29;;;;;;;3.73;3.10;;;16.60;99.90;;;;;;5009270;28;20183;-60
2022/07/11 04:17:55;;;;;;;3.10;2.80;;;16.80;99.90;;;;;;5002239;28;20195;-60
2022/07/11 04:20:20;;;;;;;3.57;3.27;;;16.40;99.90;;;;;;5008795;28;20185;-60
2022/07/11 04:22:46;;;;;;;3.00;2.67;;;16.50;99.90;;;;;;5010537;28;20202;-61
2022/07/11 04:25:11;;;;;;;3.30;2.63;;;16.90;99.90;;;;;;5005588;28;20179;-60
2022/07/11 04:27:37;;;;;;;3.40;3.10;;;16.70;99.90;;;;;;5006153;28;20644;-60
2022/07/11 04:30:03;;;;;;;3.40;3.20;;;16.60;99.90;;;;;;5006918;28;20191;-59
2022/07/11 04:32:28;;;;;;;3.20;3.00;;;16.70;99.90;;;;;;5008711;28;20210;-61
2022/07/11 04:34:54;;;;;;;3.60;3.30;;;16.80;99.90;;;;;;5000687;28;20523;-61
2022/07/11 04:37:19;;;;;;;3.30;3.10;;;16.80;99.90;;;;;;5004557;28;20194;-59
2022/07/11 04:39:46;;;;;;;4.03;3.13;;;16.90;99.90;;;;;;5008646;28;20182;-59
2022/07/11 04:42:12;;;;;;;3.45;3.15;;;16.90;99.90;;;;;;4986574;28;20199;-60
2022/07/11 04:44:37;;;;;;;4.13;3.70;;;16.90;99.90;;;;;;5009216;28;20194;-59
2022/07/11 04:47:03;;;;;;;3.10;2.80;;;17.00;99.90;;;;;;5009722;28;20179;-59
2022/07/11 04:49:29;;;;;;;3.30;3.00;;;17.20;99.90;;;;;;5006011;28;20190;-60
2022/07/11 04:51:56;;;;;;;5.23;3.70;;;17.10;99.90;;;;;;5009948;28;20453;-59
2022/07/11 04:54:22;;;;;;;4.03;3.70;;;17.10;99.90;;;;;;5007450;28;20624;-59
2022/07/11 04:56:48;;;;;;;3.92;3.58;;;17.20;99.90;;;;;;5008590;28;20194;-59
2022/07/11 04:59:13;;;;;;;3.60;3.30;;;17.40;99.90;;;;;;5005119;28;20554;-60
2022/07/11 05:01:39;;;;;;;3.53;2.93;;;17.20;99.90;;;;;;5009088;28;20202;-59
2022/07/11 05:04:05;;;;;;;3.83;3.53;;;17.30;99.90;;;;;;5003533;28;20237;-60
2022/07/11 05:06:30;;;;;;;3.57;3.37;;;17.40;99.90;;;;;;5004863;28;20236;-60
2022/07/11 05:08:56;;;;;;;5.13;4.73;;;17.40;99.90;;;;;;5007063;28;20203;-60
2022/07/11 05:11:23;;;;;;;4.03;3.60;;;17.30;99.90;;;;;;5003136;28;20202;-59
2022/07/11 05:13:48;;;;;;;4.43;4.00;;;17.40;99.90;;;;;;5007045;28;20293;-60
2022/07/11 05:16:14;;;;;;;3.60;3.30;;;17.90;99.90;;;;;;5000642;28;20306;-67
2022/07/11 05:18:39;;;;;;;5.17;4.67;;;17.60;99.90;;;;;;5006195;28;20281;-60
2022/07/11 05:21:05;;;;;;;5.17;3.87;;;17.70;99.90;;;;;;5007267;28;20301;-61
2022/07/11 05:23:31;;;;;;;4.37;4.07;;;17.80;99.90;;;;;;5007836;28;20187;-62
2022/07/11 05:25:57;;;;;;;4.80;4.40;;;17.90;99.90;;;;;;5004816;28;20191;-59
2022/07/11 05:28:22;;;;;;;4.43;4.03;;;18.00;99.90;;;;;;5005290;28;20446;-60
2022/07/11 05:30:48;;;;;;;4.73;4.33;;;17.90;99.90;;;;;;5004866;28;20199;-61
2022/07/11 05:33:14;;;;;;;4.10;3.80;;;18.20;99.90;;;;;;5007117;28;20241;-61
2022/07/11 05:35:40;;;;;;;4.80;4.40;;;18.30;99.90;;;;;;5008255;28;20193;-60
2022/07/11 05:38:05;;;;;;;4.77;4.47;;;18.40;99.90;;;;;;5001744;28;20199;-56
2022/07/11 05:40:31;;;;;;;6.30;4.03;;;18.50;99.90;;;;;;5012784;28;20185;-58
2022/07/11 05:42:56;;;;;;;4.23;3.93;;;18.70;99.90;;;;;;5011375;28;20294;-58
2022/07/11 05:45:22;;;;;;;6.27;4.60;;;18.50;99.90;;;;;;5010374;28;20211;-58
2022/07/11 05:47:48;;;;;;;4.60;4.20;;;18.70;99.90;;;;;;5005596;28;20195;-58
2022/07/11 05:50:13;;;;;;;4.80;4.50;;;18.70;99.90;;;;;;5007977;28;20699;-59
2022/07/11 05:52:39;;;;;;;4.77;4.40;;;18.70;99.90;;;;;;5012986;28;20568;-58
2022/07/11 05:55:05;;;;;;;31.63;7.50;;;18.70;99.90;;;;;;5006032;28;20241;-58
2022/07/11 05:57:30;;;;;;;4.70;4.30;;;18.50;99.40;;;;;;5004972;28;20265;-58
2022/07/11 05:59:56;;;;;;;5.53;5.00;;;19.00;99.60;;;;;;5000229;28;20668;-58
2022/07/11 06:02:21;;;;;;;6.33;4.53;;;19.00;99.30;;;;;;5006963;28;20207;-58
2022/07/11 06:04:47;;;;;;;6.70;4.13;;;19.00;99.20;;;;;;5002664;28;20183;-57
2022/07/11 06:08:40;;;;;;;4.50;4.20;;;19.10;99.10;;;;;;5005891;28;20434;-57
2022/07/11 06:09:59;;;;;;;5.57;5.05;;;19.40;98.70;;;;;;5007489;28;20186;-62
2022/07/11 06:12:24;;;;;;;4.93;4.37;;;19.50;98.20;;;;;;5008088;28;20202;-61
2022/07/11 06:14:50;;;;;;;5.20;4.00;;;19.30;98.50;;;;;;5009802;28;20217;-60
2022/07/11 06:17:15;;;;;;;4.43;3.80;;;19.10;98.60;;;;;;5012148;28;20567;-62
2022/07/11 06:19:41;;;;;;;4.47;4.07;;;19.10;98.50;;;;;;5006970;28;20593;-59
2022/07/11 06:22:06;;;;;;;4.47;4.13;;;19.30;98.60;;;;;;5012205;28;20211;-57
2022/07/11 06:24:32;;;;;;;4.93;4.33;;;19.20;98.70;;;;;;5007663;28;20179;-59
2022/07/11 06:27:00;;;;;;;5.80;5.20;;;19.20;98.80;;;;;;5005783;28;20191;-58
2022/07/11 06:29:26;;;;;;;4.10;3.80;;;19.40;98.50;;;;;;5008089;28;20217;-62
2022/07/11 06:31:52;;;;;;;4.32;4.03;;;19.50;98.50;;;;;;5007452;28;20234;-66
2022/07/11 06:34:18;;;;;;;3.90;3.60;;;19.70;98.00;;;;;;5013062;28;20208;-64
2022/07/11 06:36:43;;;;;;;9.07;8.37;;;20.00;97.40;;;;;;5010725;28;20564;-66
2022/07/11 06:39:09;;;;;;;6.03;3.80;;;19.80;97.30;;;;;;5010096;28;20688;-59
2022/07/11 06:41:34;;;;;;;4.20;3.90;;;19.50;97.90;;;;;;5010831;28;20617;-58
2022/07/11 06:44:00;;;;;;;4.30;3.90;;;19.50;98.20;;;;;;5010914;28;20182;-58
2022/07/11 06:46:27;;;;;;;4.30;4.00;;;19.80;97.60;;;;;;5010941;28;20213;-59
2022/07/11 06:48:52;;;;;;;4.85;4.40;;;19.70;96.90;;;;;;5009275;28;20548;-58
2022/07/11 06:51:18;;;;;;;4.83;4.23;;;20.10;96.80;;;;;;5005661;28;20207;-58
2022/07/11 06:53:44;;;;;;;4.07;3.87;;;20.10;96.70;;;;;;5010529;28;20262;-57
2022/07/11 06:56:09;;;;;;;5.80;4.13;;;20.20;96.60;;;;;;5010386;28;20518;-57
2022/07/11 06:58:35;;;;;;;14.70;5.20;;;20.40;96.70;;;;;;5001378;28;20412;-58
2022/07/11 07:01:03;;;;;;;4.20;3.90;;;20.00;96.40;;;;;;5011146;28;20234;-62
2022/07/11 07:03:30;;;;;;;3.95;3.55;;;20.50;96.20;;;;;;5008532;28;20648;-61
2022/07/11 07:05:56;;;;;;;4.57;4.28;;;20.70;95.70;;;;;;4989590;28;20630;-63
2022/07/11 07:08:24;;;;;;;4.43;4.03;;;20.90;95.30;;;;;;5006897;28;20193;-60
2022/07/11 07:10:49;;;;;;;8.63;7.80;;;20.70;95.20;;;;;;5003464;28;20194;-66
2022/07/11 07:13:15;;;;;;;7.33;6.20;;;21.00;95.20;;;;;;5004173;28;20210;-64
2022/07/11 07:15:41;;;;;;;4.30;4.00;;;21.20;94.90;;;;;;5010536;28;20190;-67
2022/07/11 07:18:06;;;;;;;5.07;4.63;;;21.40;94.20;;;;;;5009864;28;20198;-66
2022/07/11 07:20:32;;;;;;;4.63;4.33;;;21.50;93.80;;;;;;4998916;28;20278;-60
2022/07/11 07:22:58;;;;;;;4.80;4.00;;;21.80;93.70;;;;;;5010804;28;20213;-61
2022/07/11 07:25:25;;;;;;;5.67;5.17;;;21.70;93.40;;;;;;5005729;28;20185;-62
2022/07/11 07:27:51;;;;;;;3.67;3.47;;;22.30;92.70;;;;;;5003330;28;20801;-62
2022/07/11 07:30:16;;;;;;;4.13;3.60;;;22.40;92.10;;;;;;5010043;28;20773;-62
2022/07/11 07:32:42;;;;;;;3.87;3.57;;;22.40;91.60;;;;;;5010249;28;20459;-63
2022/07/11 07:35:07;;;;;;;3.90;3.60;;;22.70;91.50;;;;;;5010299;28;20219;-62
2022/07/11 07:37:33;;;;;;;2.90;2.63;;;23.30;90.80;;;;;;5008713;28;20248;-61
2022/07/11 07:39:59;;;;;;;3.20;3.00;;;24.00;89.60;;;;;;5010284;28;20191;-61
2022/07/11 07:42:24;;;;;;;3.27;2.97;;;24.40;87.10;;;;;;5006631;28;20221;-64
2022/07/11 07:44:50;;;;;;;3.20;2.90;;;25.40;83.70;;;;;;5008974;28;20197;-67
2022/07/11 07:47:15;;;;;;;4.30;4.00;;;25.50;81.00;;;;;;5009251;28;20560;-60
2022/07/11 07:49:41;;;;;;;3.33;3.13;;;25.40;79.80;;;;;;5008811;28;20191;-60
2022/07/11 07:52:06;;;;;;;4.00;2.73;;;25.20;79.70;;;;;;5005824;28;20275;-64
2022/07/11 07:54:32;;;;;;;2.83;2.63;;;25.30;79.40;;;;;;5010524;28;20225;-57
2022/07/11 07:56:57;;;;;;;2.90;2.70;;;25.90;78.30;;;;;;5001257;28;20272;-57
2022/07/11 07:59:24;;;;;;;2.80;2.60;;;26.10;75.70;;;;;;5009564;28;20272;-57
2022/07/11 08:01:51;;;;;;;2.97;2.77;;;25.80;77.10;;;;;;5007849;28;20209;-57
2022/07/11 08:04:17;;;;;;;3.37;2.40;;;25.90;76.40;;;;;;5007732;28;20452;-58
2022/07/11 08:06:42;;;;;;;3.10;2.90;;;25.80;75.30;;;;;;5005316;28;20808;-57
2022/07/11 08:09:08;;;;;;;3.03;2.57;;;25.70;75.20;;;;;;5011151;28;20242;-58
2022/07/11 08:11:34;;;;;;;2.90;2.70;;;26.20;74.60;;;;;;5008929;28;20702;-59
2022/07/11 08:14:01;;;;;;;2.40;2.30;;;26.90;72.00;;;;;;5004184;28;20203;-54
2022/07/11 08:16:30;;;;;;;2.83;2.63;;;27.10;70.70;;;;;;5007331;28;20438;-54
2022/07/11 08:18:56;;;;;;;3.70;2.60;;;27.80;69.00;;;;;;5000377;28;20444;-54
2022/07/11 08:21:22;;;;;;;4.70;2.60;;;27.30;67.80;;;;;;5006897;28;20454;-54
2022/07/11 08:23:48;;;;;;;2.73;2.53;;;28.00;67.70;;;;;;5008517;28;20538;-54
2022/07/11 08:26:14;;;;;;;2.80;2.60;;;28.70;64.20;;;;;;4992324;28;20527;-54
2022/07/11 08:28:39;;;;;;;2.53;2.33;;;29.60;62.90;;;;;;5005890;28;20290;-55
2022/07/11 08:31:05;;;;;;;3.50;2.33;;;31.30;58.90;;;;;;4992349;28;20206;-55
2022/07/11 08:33:30;;;;;;;2.33;2.23;;;31.90;55.10;;;;;;5015356;28;20241;-56
2022/07/11 08:35:56;;;;;;;2.60;2.40;;;32.10;52.60;;;;;;5002961;28;20251;-55
2022/07/11 08:38:22;;;;;;;2.57;1.80;;;32.40;52.00;;;;;;4990077;28;20213;-59
2022/07/11 08:40:51;;;;;;;1.83;1.73;;;32.10;50.70;;;;;;5005161;28;20289;-65
2022/07/11 08:43:22;;;;;;;13.70;2.90;;;34.10;48.70;;;;;;5007434;28;20449;-65
2022/07/11 08:45:48;;;;;;;1.90;1.80;;;33.60;47.20;;;;;;5006911;28;20441;-64
2022/07/11 08:48:15;;;;;;;2.20;1.80;;;32.90;48.30;;;;;;5009035;28;20441;-64
2022/07/11 08:50:40;;;;;;;1.60;1.50;;;33.90;47.60;;;;;;5006739;28;20495;-63
2022/07/11 08:53:06;;;;;;;1.77;1.63;;;34.80;44.90;;;;;;5008444;28;20528;-62
2022/07/11 08:55:32;;;;;;;2.80;1.97;;;35.30;43.50;;;;;;5003393;28;20277;-63
2022/07/11 08:57:58;;;;;;;2.00;1.70;;;34.30;43.40;;;;;;5008879;28;20187;-63
2022/07/11 09:00:25;;;;;;;2.30;1.50;;;34.30;43.70;;;;;;5010166;28;20529;-64
2022/07/11 09:02:52;;;;;;;3.17;2.20;;;33.30;45.10;;;;;;5006044;28;20821;-63
2022/07/11 09:05:18;;;;;;;1.50;1.40;;;32.10;45.20;;;;;;5003337;28;20448;-63
2022/07/11 09:07:46;;;;;;;1.90;1.53;;;31.40;47.40;;;;;;5006796;28;20445;-64
2022/07/11 09:10:12;;;;;;;2.10;1.43;;;30.00;48.00;;;;;;5003742;28;20730;-59
2022/07/11 09:12:56;;;;;;;1.50;1.40;;;29.40;49.70;;;;;;5004780;28;20477;-59
2022/07/11 09:15:32;;;;;;;1.50;1.40;;;27.90;51.60;;;;;;5005424;28;20969;-57
2022/07/11 09:17:57;;;;;;;1.40;1.30;;;27.30;54.70;;;;;;5008754;28;20982;-58
2022/07/11 09:20:23;;;;;;;3.40;1.27;;;26.90;54.40;;;;;;5005711;28;20536;-58
2022/07/11 09:25:41;;;;;;;2.03;1.20;;;26.80;55.20;;;;;;5008270;28;20743;-56
2022/07/11 09:28:07;;;;;;;1.40;1.30;;;27.50;55.10;;;;;;5008317;28;20866;-56
2022/07/11 09:30:35;;;;;;;1.60;1.50;;;28.60;53.50;;;;;;5011392;28;20550;-65
2022/07/11 09:33:15;;;;;;;1.60;1.50;;;28.60;52.50;;;;;;4996353;28;20590;-62
2022/07/11 09:35:45;;;;;;;1.70;1.60;;;27.90;53.30;;;;;;5003817;28;20517;-63
2022/07/11 09:38:16;;;;;;;1.90;1.80;;;27.40;55.00;;;;;;5010744;28;20449;-62
2022/07/11 09:40:46;;;;;;;2.63;2.10;;;27.30;55.70;;;;;;5009496;28;20437;-63
2022/07/11 09:43:12;;;;;;;3.10;2.30;;;26.60;57.10;;;;;;5012648;28;20803;-60
2022/07/11 09:45:39;;;;;;;2.60;2.20;;;26.30;57.60;;;;;;5008505;28;20525;-61
2022/07/11 09:48:13;;;;;;;2.20;2.00;;;26.20;58.80;;;;;;5009710;28;20557;-65
2022/07/11 09:50:40;;;;;;;1.97;1.63;;;25.80;59.80;;;;;;5003300;28;20518;-62
2022/07/11 09:53:11;;;;;;;3.50;3.20;;;25.20;61.70;;;;;;5005427;28;20436;-61
2022/07/11 09:55:38;;;;;;;3.00;2.80;;;25.20;62.60;;;;;;5011659;28;20947;-63
2022/07/11 09:58:09;;;;;;;2.97;2.73;;;25.20;63.30;;;;;;5010912;28;20443;-61
2022/07/11 10:00:37;;;;;;;2.43;2.10;;;25.20;63.80;;;;;;5008628;28;20472;-61
2022/07/11 10:03:04;;;;;;;2.00;1.90;;;24.80;64.10;;;;;;5004196;28;20979;-60
2022/07/11 10:05:30;;;;;;;1.87;1.77;;;24.70;65.00;;;;;;5006235;28;20449;-59
2022/07/11 10:08:00;;;;;;;1.97;1.80;;;24.60;65.70;;;;;;5002240;28;20443;-62
2022/07/11 10:10:28;;;;;;;2.90;2.17;;;24.50;65.30;;;;;;4995897;28;20263;-60
2022/07/11 10:12:54;;;;;;;3.07;2.77;;;24.40;66.30;;;;;;5004835;28;20461;-60
2022/07/11 10:15:44;;;;;;;3.43;3.00;;;24.40;65.90;;;;;;5010586;28;20465;-61
2022/07/11 10:18:17;;;;;;;2.13;2.03;;;24.30;65.00;;;;;;5007876;28;20449;-58
2022/07/11 10:21:00;;;;;;;3.67;1.93;;;24.50;64.90;;;;;;5002203;28;20603;-59
2022/07/11 10:23:56;;;;;;;1.83;1.73;;;24.60;64.50;;;;;;5014081;28;20447;-59
2022/07/11 10:26:56;;;;;;;2.77;2.40;;;25.10;63.30;;;;;;5005707;28;20439;-59
2022/07/11 10:30:01;;;;;;;1.50;1.40;;;25.60;62.00;;;;;;5004851;28;20443;-59
2022/07/11 10:32:27;;;;;;;2.23;1.80;;;25.20;62.10;;;;;;4955639;28;20891;-58
2022/07/11 10:35:15;;;;;;;1.23;1.13;;;25.60;61.70;;;;;;5005073;28;20973;-59
2022/07/11 10:37:54;;;;;;;2.00;1.20;;;25.80;60.00;;;;;;5011561;28;20494;-57
2022/07/11 10:40:45;;;;;;;1.67;1.00;;;25.70;59.70;;;;;;5007274;28;20497;-57
2022/07/11 10:43:12;;;;;;;2.13;1.40;;;25.60;59.70;;;;;;5011688;28;20436;-58
2022/07/11 10:46:04;;;;;;;1.43;1.33;;;25.60;61.10;;;;;;5007517;28;20444;-58
2022/07/11 10:48:31;;;;;;;2.03;1.90;;;26.00;60.00;;;;;;4999893;28;20433;-58
2022/07/11 10:51:01;;;;;;;3.13;1.40;;;26.30;59.40;;;;;;5005737;28;20444;-59
2022/07/11 10:53:32;;;;;;;1.73;1.63;;;25.60;60.70;;;;;;5008202;28;20993;-59
2022/07/11 10:56:14;;;;;;;2.03;1.90;;;25.90;60.20;;;;;;5008478;28;20434;-60
2022/07/11 10:58:43;;;;;;;1.73;1.57;;;26.60;59.10;;;;;;5003157;28;20449;-61
2022/07/11 11:01:15;;;;;;;1.27;1.17;;;27.40;56.30;;;;;;5009881;28;20832;-56
2022/07/11 11:03:42;;;;;;;1.10;1.03;;;27.30;56.30;;;;;;5007290;28;20484;-56
2022/07/11 11:06:08;;;;;;;1.23;1.17;;;27.60;55.70;;;;;;5007382;28;20528;-56
2022/07/11 11:09:25;;;;;;;2.30;2.10;;;27.50;55.60;;;;;;5009538;28;20446;-55
2022/07/11 11:11:50;;;;;;;2.67;1.70;;;27.50;58.10;;;;;;5008849;28;21002;-56
2022/07/11 11:14:18;;;;;;;2.00;1.50;;;26.80;57.50;;;;;;5009027;28;20476;-54
2022/07/11 11:16:44;;;;;;;1.90;1.80;;;26.10;59.20;;;;;;5016143;28;20181;-54
2022/07/11 11:19:44;;;;;;;2.90;2.07;;;25.90;59.10;;;;;;5002188;28;20452;-55
2022/07/11 11:22:16;;;;;;;2.37;2.17;;;25.80;59.20;;;;;;5003690;28;20477;-55
2022/07/11 11:24:43;;;;;;;1.50;1.40;;;26.10;59.30;;;;;;5010007;28;20453;-55
2022/07/11 11:27:22;;;;;;;1.50;1.40;;;26.50;58.60;;;;;;5009957;28;20450;-55
2022/07/11 11:29:50;;;;;;;1.47;1.37;;;27.00;57.50;;;;;;5008098;28;20438;-57
2022/07/11 11:32:16;;;;;;;3.20;1.80;;;27.10;57.50;;;;;;5009505;28;20461;-63
2022/07/11 11:34:43;;;;;;;1.50;1.40;;;27.30;56.90;;;;;;5001225;28;20491;-66
2022/07/11 11:37:09;;;;;;;1.70;1.60;;;27.60;56.50;;;;;;5001528;28;20613;-57
2022/07/11 11:39:39;;;;;;;1.40;1.30;;;27.00;55.80;;;;;;5009213;28;20515;-55
2022/07/11 11:42:06;;;;;;;2.13;1.50;;;27.00;57.20;;;;;;5001512;28;20260;-55
2022/07/11 11:44:33;;;;;;;2.50;2.07;;;27.40;56.30;;;;;;5011048;28;20441;-59
2022/07/11 11:46:59;;;;;;;1.70;1.60;;;27.70;56.10;;;;;;5009177;28;20449;-59
2022/07/11 11:49:24;;;;;;;1.93;1.83;;;27.40;56.50;;;;;;4992529;28;20437;-58
2022/07/11 11:51:53;;;;;;;1.90;1.80;;;27.50;56.90;;;;;;5008834;28;20293;-58
2022/07/11 11:54:25;;;;;;;1.70;1.60;;;27.60;56.10;;;;;;5009998;28;20226;-56
2022/07/11 11:56:52;;;;;;;1.60;1.50;;;27.50;56.70;;;;;;4993092;28;20445;-58
2022/07/11 11:59:18;;;;;;;2.30;1.50;;;27.90;55.80;;;;;;5001851;28;20444;-57
2022/07/11 12:01:45;;;;;;;1.40;1.30;;;27.90;56.20;;;;;;5007957;28;20469;-58
2022/07/11 12:04:16;;;;;;;2.80;2.00;;;27.80;56.20;;;;;;5007570;28;20290;-57
2022/07/11 12:06:42;;;;;;;3.03;1.90;;;27.70;56.30;;;;;;5007424;28;20450;-57
2022/07/11 12:09:15;;;;;;;1.80;1.70;;;27.00;57.20;;;;;;5001687;28;20454;-56
2022/07/11 12:11:43;;;;;;;1.90;1.80;;;26.80;57.90;;;;;;4999273;28;20472;-57
2022/07/11 12:14:11;;;;;;;1.87;1.77;;;26.40;59.00;;;;;;5005960;28;20464;-62
2022/07/11 12:16:49;;;;;;;3.13;1.87;;;26.10;59.10;;;;;;5004168;28;20455;-62
2022/07/11 12:19:22;;;;;;;2.70;2.50;;;26.00;59.80;;;;;;5007959;28;20949;-61
2022/07/11 12:21:51;;;;;;;3.63;2.80;;;25.80;60.10;;;;;;5006543;28;20576;-58
2022/07/11 12:24:20;;;;;;;2.83;2.20;;;26.10;59.80;;;;;;5009587;28;20601;-59
2022/07/11 12:26:47;;;;;;;3.27;2.90;;;26.30;59.70;;;;;;5008218;28;20477;-59
2022/07/11 12:29:22;;;;;;;2.03;1.90;;;26.40;59.70;;;;;;5004126;28;20433;-59
2022/07/11 12:31:56;;;;;;;2.50;2.40;;;26.60;59.00;;;;;;5007977;28;20453;-59
2022/07/11 12:34:27;;;;;;;4.10;3.80;;;26.60;58.00;;;;;;4994967;28;20462;-60
2022/07/11 12:37:10;;;;;;;2.63;2.47;;;26.60;58.90;;;;;;5006310;28;20556;-60
2022/07/11 12:39:51;;;;;;;2.47;2.10;;;26.70;59.00;;;;;;5007236;28;20980;-60
2022/07/11 12:42:28;;;;;;;1.97;1.87;;;26.30;59.40;;;;;;4997274;28;20454;-58
2022/07/11 12:45:07;;;;;;;2.20;2.10;;;26.30;60.00;;;;;;5007777;28;20480;-58
2022/07/11 12:47:34;;;;;;;2.00;1.80;;;25.90;60.70;;;;;;5006917;28;20438;-57
2022/07/11 12:50:10;;;;;;;2.30;2.10;;;26.10;62.10;;;;;;5012665;28;20444;-54
2022/07/11 12:52:40;;;;;;;5.27;4.77;;;26.00;60.40;;;;;;5012258;28;20461;-55